Time;durP1;ratioP1;P1;durP2;ratioP2;P2;SDS_P1;SDS_P2;PMS_P1;PMS_P2;Temp;Humidity;BMP_temperature;BMP_pressure;BME280_temperature;BME280_humidity;BME280_pressure;Samples;Min_cycle;Max_cycle;Signal;HPM_P1;HPM_P2
2021/08/06 00:00:20;;;;;;;20.77;18.55;;;;;;;;;;5034881;28;20416;-65
2021/08/06 00:02:46;;;;;;;19.70;17.60;;;;;;;;;;5036587;28;20053;-64
2021/08/06 00:05:12;;;;;;;21.58;19.30;;;;;;;;;;5036206;28;20396;-64
2021/08/06 00:07:38;;;;;;;20.52;18.35;;;;;;;;;;5054445;28;20032;-64
2021/08/06 00:10:05;;;;;;;19.95;17.88;;;;;;;;;;5036574;28;20035;-64
2021/08/06 00:12:31;;;;;;;22.20;19.52;;;;;;;;;;5054378;28;20025;-64
2021/08/06 00:14:57;;;;;;;20.52;18.15;;;;;;;;;;5054130;28;20024;-64
2021/08/06 00:17:23;;;;;;;20.60;18.45;;;;;;;;;;5035868;28;20024;-64
2021/08/06 00:19:49;;;;;;;20.00;17.90;;;;;;;;;;5054279;28;20116;-64
2021/08/06 00:22:15;;;;;;;19.83;17.73;;;;;;;;;;5036550;28;20040;-64
2021/08/06 00:24:41;;;;;;;19.60;17.50;;;;;;;;;;5054262;28;20343;-64
2021/08/06 00:27:07;;;;;;;19.73;17.63;;;;;;;;;;5053406;28;20040;-64
2021/08/06 00:29:33;;;;;;;19.65;17.52;;;;;;;;;;5036544;28;20397;-64
2021/08/06 00:31:59;;;;;;;23.75;20.95;;;;;;;;;;5036523;28;20029;-64
2021/08/06 00:34:25;;;;;;;40.38;34.90;;;;;;;;;;5054196;28;20532;-64
2021/08/06 00:36:51;;;;;;;49.45;44.15;;;;;;;;;;5053214;28;20039;-64
2021/08/06 00:39:17;;;;;;;37.25;33.53;;;;;;;;;;5035954;28;20032;-64
2021/08/06 00:41:43;;;;;;;20.65;18.45;;;;;;;;;;5053876;28;20024;-64
2021/08/06 00:44:09;;;;;;;20.88;18.77;;;;;;;;;;5053707;28;20477;-64
2021/08/06 00:46:35;;;;;;;21.10;18.95;;;;;;;;;;5035373;28;20021;-64
2021/08/06 00:49:01;;;;;;;20.02;17.60;;;;;;;;;;5035565;28;20064;-65
2021/08/06 00:51:27;;;;;;;20.85;17.65;;;;;;;;;;5053858;28;20029;-64
2021/08/06 00:53:53;;;;;;;20.83;18.67;;;;;;;;;;5053555;28;20463;-65
2021/08/06 00:56:19;;;;;;;19.92;17.83;;;;;;;;;;5053311;28;20029;-64
2021/08/06 00:58:45;;;;;;;20.83;18.55;;;;;;;;;;5035621;28;20017;-64
2021/08/06 01:01:11;;;;;;;21.17;19.00;;;;;;;;;;5053785;28;20389;-64
2021/08/06 01:03:49;;;;;;;24.77;22.30;;;;;;;;;;5053786;28;20024;-64
2021/08/06 01:06:21;;;;;;;21.35;18.65;;;;;;;;;;5035146;28;20025;-63
2021/08/06 01:08:59;;;;;;;22.27;19.90;;;;;;;;;;5053318;28;20043;-64
2021/08/06 01:11:27;;;;;;;20.15;18.05;;;;;;;;;;5053458;28;20457;-64
2021/08/06 01:13:55;;;;;;;21.27;17.73;;;;;;;;;;5035740;28;20464;-64
2021/08/06 01:16:26;;;;;;;18.73;16.73;;;;;;;;;;5052877;28;20021;-64
2021/08/06 01:19:07;;;;;;;20.65;17.60;;;;;;;;;;5035744;28;20179;-64
2021/08/06 01:21:41;;;;;;;19.27;17.17;;;;;;;;;;5053112;28;20083;-64
2021/08/06 01:24:07;;;;;;;19.40;17.30;;;;;;;;;;5035315;28;20028;-64
2021/08/06 01:26:33;;;;;;;19.33;17.30;;;;;;;;;;5034523;28;20069;-64
2021/08/06 01:28:59;;;;;;;19.20;17.20;;;;;;;;;;5053056;28;20185;-64
2021/08/06 01:31:26;;;;;;;19.73;17.73;;;;;;;;;;5052852;28;20021;-64
2021/08/06 01:33:52;;;;;;;20.30;18.10;;;;;;;;;;5035037;28;20071;-64
2021/08/06 01:36:18;;;;;;;19.60;17.50;;;;;;;;;;5052075;28;20525;-64
2021/08/06 01:38:44;;;;;;;19.83;16.90;;;;;;;;;;5034896;28;20102;-64
2021/08/06 01:41:20;;;;;;;19.25;17.17;;;;;;;;;;5034976;28;20063;-64
2021/08/06 01:44:08;;;;;;;19.40;17.30;;;;;;;;;;5034766;28;20035;-64
2021/08/06 01:46:34;;;;;;;;;;;;;;;;;;5034548;28;20417;-64
2021/08/06 01:49:09;;;;;;;19.23;17.23;;;;;;;;;;5052475;28;19913;-64
2021/08/06 01:51:35;;;;;;;18.95;16.95;;;;;;;;;;5052511;28;20028;-64
2021/08/06 01:54:03;;;;;;;19.73;17.73;;;;;;;;;;5052463;28;20114;-64
2021/08/06 01:56:29;;;;;;;19.10;17.05;;;;;;;;;;5033971;28;20025;-64
2021/08/06 01:58:56;;;;;;;19.52;17.52;;;;;;;;;;5052442;28;20576;-64
2021/08/06 02:01:23;;;;;;;18.95;17.02;;;;;;;;;;5052272;28;20148;-64
2021/08/06 02:03:49;;;;;;;19.30;17.30;;;;;;;;;;5052310;28;20481;-64
2021/08/06 02:06:18;;;;;;;22.15;18.13;;;;;;;;;;5051669;28;20489;-64
2021/08/06 02:08:44;;;;;;;19.42;17.27;;;;;;;;;;5052338;28;20025;-64
2021/08/06 02:11:11;;;;;;;19.60;17.60;;;;;;;;;;5034398;28;20035;-64
2021/08/06 02:13:37;;;;;;;18.98;16.92;;;;;;;;;;5052127;28;20025;-64
2021/08/06 02:16:04;;;;;;;19.17;17.17;;;;;;;;;;5051677;28;20032;-63
2021/08/06 02:18:31;;;;;;;19.27;17.27;;;;;;;;;;5051870;28;20473;-64
2021/08/06 02:20:59;;;;;;;20.60;17.85;;;;;;;;;;5033941;28;20032;-64
2021/08/06 02:23:26;;;;;;;19.80;17.70;;;;;;;;;;5051198;28;20057;-64
2021/08/06 02:25:53;;;;;;;20.10;17.83;;;;;;;;;;5050712;28;20029;-64
2021/08/06 02:28:20;;;;;;;19.77;17.77;;;;;;;;;;5033316;28;20040;-64
2021/08/06 02:30:46;;;;;;;19.50;17.50;;;;;;;;;;5051314;28;20263;-64
2021/08/06 02:33:12;;;;;;;19.42;17.42;;;;;;;;;;5033363;28;20315;-64
2021/08/06 02:35:38;;;;;;;19.60;17.60;;;;;;;;;;5050478;28;20028;-64
2021/08/06 02:38:04;;;;;;;19.85;17.75;;;;;;;;;;5033343;28;20052;-64
2021/08/06 02:40:31;;;;;;;20.45;17.60;;;;;;;;;;5033842;28;20496;-65
2021/08/06 02:42:57;;;;;;;19.15;17.13;;;;;;;;;;5033723;28;20540;-64
2021/08/06 02:45:23;;;;;;;19.70;17.60;;;;;;;;;;5050460;28;20031;-64
2021/08/06 02:47:49;;;;;;;19.23;17.20;;;;;;;;;;5051065;28;20388;-64
2021/08/06 02:50:16;;;;;;;19.25;17.25;;;;;;;;;;5032967;28;20039;-64
2021/08/06 02:52:42;;;;;;;18.92;16.92;;;;;;;;;;5051084;28;20033;-64
2021/08/06 02:55:08;;;;;;;20.83;17.25;;;;;;;;;;5033182;28;20040;-63
2021/08/06 02:57:34;;;;;;;18.92;16.92;;;;;;;;;;5033794;28;20060;-64
2021/08/06 03:00:00;;;;;;;20.08;17.98;;;;;;;;;;5033986;28;20433;-64
2021/08/06 03:02:26;;;;;;;20.00;17.90;;;;;;;;;;5051776;28;20462;-64
2021/08/06 03:04:52;;;;;;;19.98;17.88;;;;;;;;;;5051990;28;20104;-64
2021/08/06 03:07:19;;;;;;;19.58;17.58;;;;;;;;;;5050907;28;20101;-64
2021/08/06 03:09:45;;;;;;;20.05;17.95;;;;;;;;;;5033532;28;20021;-64
2021/08/06 03:12:11;;;;;;;20.15;17.75;;;;;;;;;;5051341;28;20048;-64
2021/08/06 03:14:37;;;;;;;20.00;17.70;;;;;;;;;;5033841;28;20025;-64
2021/08/06 03:17:03;;;;;;;20.08;17.98;;;;;;;;;;5050516;28;20172;-64
2021/08/06 03:19:29;;;;;;;19.77;17.67;;;;;;;;;;5033232;28;20071;-64
2021/08/06 03:21:55;;;;;;;19.65;17.55;;;;;;;;;;5033371;28;20055;-64
2021/08/06 03:24:21;;;;;;;19.80;17.73;;;;;;;;;;5051173;28;20025;-63
2021/08/06 03:26:47;;;;;;;20.67;18.17;;;;;;;;;;5032657;28;20031;-64
2021/08/06 03:29:13;;;;;;;19.67;17.52;;;;;;;;;;5051145;28;20029;-64
2021/08/06 03:31:39;;;;;;;20.13;18.02;;;;;;;;;;5051087;28;20036;-64
2021/08/06 03:34:05;;;;;;;19.52;17.52;;;;;;;;;;5052315;28;20025;-64
2021/08/06 03:36:31;;;;;;;19.30;17.30;;;;;;;;;;5054214;28;20052;-64
2021/08/06 03:38:57;;;;;;;19.63;17.52;;;;;;;;;;5055201;28;20070;-64
2021/08/06 03:41:23;;;;;;;19.42;17.35;;;;;;;;;;5036880;28;20020;-64
2021/08/06 03:43:50;;;;;;;20.88;18.40;;;;;;;;;;5055009;28;20059;-64
2021/08/06 03:46:15;;;;;;;21.98;18.70;;;;;;;;;;5054378;28;20021;-65
2021/08/06 03:48:42;;;;;;;20.45;18.27;;;;;;;;;;5036735;28;20041;-64
2021/08/06 03:51:08;;;;;;;21.83;18.17;;;;;;;;;;5036776;28;20119;-64
2021/08/06 03:53:34;;;;;;;19.55;17.33;;;;;;;;;;5054722;28;20048;-64
2021/08/06 03:56:00;;;;;;;20.70;18.27;;;;;;;;;;5053903;28;20029;-64
2021/08/06 03:58:26;;;;;;;19.98;17.83;;;;;;;;;;5054459;28;20021;-64
2021/08/06 04:00:52;;;;;;;20.33;18.20;;;;;;;;;;5054590;28;20477;-64
2021/08/06 04:03:18;;;;;;;20.50;18.30;;;;;;;;;;5054569;28;20028;-64
2021/08/06 04:05:43;;;;;;;21.55;18.58;;;;;;;;;;5053891;28;20052;-64
2021/08/06 04:08:10;;;;;;;19.70;17.63;;;;;;;;;;5036654;28;20075;-64
2021/08/06 04:10:36;;;;;;;19.60;17.60;;;;;;;;;;5054346;28;20033;-64
2021/08/06 04:13:03;;;;;;;20.27;18.17;;;;;;;;;;5036426;28;20056;-66
2021/08/06 04:15:29;;;;;;;20.10;18.00;;;;;;;;;;5035886;28;20040;-65
2021/08/06 04:17:56;;;;;;;19.92;17.88;;;;;;;;;;5054318;28;20021;-65
2021/08/06 04:20:22;;;;;;;20.42;18.08;;;;;;;;;;5054347;28;20036;-65
2021/08/06 04:22:48;;;;;;;20.58;18.13;;;;;;;;;;5036220;28;20393;-65
2021/08/06 04:25:14;;;;;;;22.38;18.45;;;;;;;;;;5035710;28;20091;-65
2021/08/06 04:27:40;;;;;;;20.02;17.92;;;;;;;;;;5053882;28;20451;-65
2021/08/06 04:30:07;;;;;;;20.20;18.10;;;;;;;;;;5036031;28;20389;-65
2021/08/06 04:32:33;;;;;;;20.80;18.60;;;;;;;;;;5036057;28;20016;-65
2021/08/06 04:34:59;;;;;;;23.27;18.65;;;;;;;;;;5054006;28;20029;-65
2021/08/06 04:37:25;;;;;;;20.23;18.13;;;;;;;;;;5035480;28;20021;-65
2021/08/06 04:39:51;;;;;;;20.50;18.33;;;;;;;;;;5035943;28;20067;-65
2021/08/06 04:42:17;;;;;;;19.85;17.75;;;;;;;;;;5054082;28;20370;-65
2021/08/06 04:44:43;;;;;;;21.48;18.85;;;;;;;;;;5053807;28;20025;-66
2021/08/06 04:47:10;;;;;;;21.05;18.85;;;;;;;;;;5052368;28;20025;-65
2021/08/06 04:49:36;;;;;;;20.13;17.90;;;;;;;;;;5036186;28;20037;-65
2021/08/06 04:52:02;;;;;;;20.83;18.63;;;;;;;;;;5053566;28;20112;-65
2021/08/06 04:54:28;;;;;;;20.30;18.13;;;;;;;;;;5053778;28;20033;-65
2021/08/06 04:56:55;;;;;;;20.60;18.50;;;;;;;;;;5052950;28;20071;-65
2021/08/06 04:59:21;;;;;;;19.52;17.52;;;;;;;;;;5053490;28;20021;-65
2021/08/06 05:01:47;;;;;;;20.23;18.02;;;;;;;;;;5053564;28;20038;-65
2021/08/06 05:04:12;;;;;;;23.65;21.15;;;;;;;;;;5053548;28;20070;-65
2021/08/06 05:06:38;;;;;;;20.00;17.90;;;;;;;;;;5034897;28;20051;-62
2021/08/06 05:09:04;;;;;;;21.05;18.02;;;;;;;;;;5035212;28;20029;-65
2021/08/06 05:11:31;;;;;;;20.35;17.70;;;;;;;;;;5033120;28;20104;-67
2021/08/06 05:13:57;;;;;;;20.05;17.95;;;;;;;;;;5053077;28;20396;-67
2021/08/06 05:16:23;;;;;;;20.25;18.15;;;;;;;;;;5034339;28;20021;-67
2021/08/06 05:18:49;;;;;;;20.40;18.13;;;;;;;;;;5053091;28;20435;-68
2021/08/06 05:21:15;;;;;;;20.65;17.90;;;;;;;;;;5035153;28;20028;-67
2021/08/06 05:23:41;;;;;;;20.13;18.02;;;;;;;;;;5053117;28;20548;-67
2021/08/06 05:26:07;;;;;;;19.75;17.65;;;;;;;;;;5034354;28;20129;-67
2021/08/06 05:28:33;;;;;;;23.17;18.98;;;;;;;;;;5034952;28;20048;-67
2021/08/06 05:30:59;;;;;;;20.20;17.73;;;;;;;;;;5034895;28;20029;-67
2021/08/06 05:33:25;;;;;;;20.90;18.23;;;;;;;;;;5035133;28;20031;-67
2021/08/06 05:35:51;;;;;;;22.30;19.00;;;;;;;;;;5051988;28;20032;-68
2021/08/06 05:38:17;;;;;;;22.88;19.63;;;;;;;;;;5052721;28;20022;-67
2021/08/06 05:40:43;;;;;;;19.77;17.67;;;;;;;;;;5034624;28;20112;-67
2021/08/06 05:43:09;;;;;;;22.50;20.20;;;;;;;;;;5034730;28;20033;-67
2021/08/06 05:45:35;;;;;;;21.75;19.35;;;;;;;;;;5034064;28;20397;-68
2021/08/06 05:48:01;;;;;;;20.30;18.20;;;;;;;;;;5052575;28;20445;-67
2021/08/06 05:50:28;;;;;;;20.80;18.55;;;;;;;;;;5057445;23;20246;-65
2021/08/06 05:52:54;;;;;;;19.80;17.63;;;;;;;;;;5034953;28;20021;-66
2021/08/06 05:55:21;;;;;;;22.05;17.98;;;;;;;;;;5034226;28;20032;-64
2021/08/06 05:57:47;;;;;;;20.13;18.10;;;;;;;;;;5034780;28;20079;-66
2021/08/06 06:00:14;;;;;;;19.85;17.58;;;;;;;;;;5052376;28;20404;-63
2021/08/06 06:02:40;;;;;;;20.30;18.13;;;;;;;;;;5050777;28;20025;-65
2021/08/06 06:05:07;;;;;;;20.40;18.10;;;;;;;;;;5034207;28;20389;-64
2021/08/06 06:07:33;;;;;;;18.95;16.85;;;;;;;;;;5052421;28;20029;-66
2021/08/06 06:09:59;;;;;;;20.92;17.75;;;;;;;;;;5052313;28;20099;-65
2021/08/06 06:12:25;;;;;;;21.00;17.65;;;;;;;;;;5034467;28;20477;-67
2021/08/06 06:14:50;;;;;;;20.35;18.25;;;;;;;;;;5052345;28;20029;-69
2021/08/06 06:17:17;;;;;;;19.85;17.75;;;;;;;;;;5033723;28;20024;-62
2021/08/06 06:19:46;;;;;;;24.02;20.58;;;;;;;;;;5034550;28;20045;-61
2021/08/06 06:22:12;;;;;;;20.98;18.08;;;;;;;;;;5052286;28;20025;-63
2021/08/06 06:24:38;;;;;;;23.42;17.98;;;;;;;;;;5034308;28;20074;-63
2021/08/06 06:27:06;;;;;;;19.48;17.42;;;;;;;;;;5051728;28;20025;-64
2021/08/06 06:29:32;;;;;;;19.25;17.25;;;;;;;;;;5052125;28;20112;-64
2021/08/06 06:31:58;;;;;;;19.95;17.42;;;;;;;;;;5034208;28;20130;-62
2021/08/06 06:34:24;;;;;;;19.25;16.45;;;;;;;;;;5034193;28;20021;-64
2021/08/06 06:36:50;;;;;;;20.10;17.98;;;;;;;;;;5033697;28;20057;-61
2021/08/06 06:39:16;;;;;;;18.85;16.77;;;;;;;;;;5034505;28;20037;-65
2021/08/06 06:41:42;;;;;;;18.67;16.67;;;;;;;;;;5051809;28;20079;-63
2021/08/06 06:44:08;;;;;;;18.40;16.38;;;;;;;;;;5052115;28;20037;-65
2021/08/06 06:46:34;;;;;;;18.92;16.17;;;;;;;;;;5033632;28;20056;-63
2021/08/06 06:49:00;;;;;;;18.02;16.13;;;;;;;;;;5033362;28;20500;-63
2021/08/06 06:51:26;;;;;;;19.98;16.63;;;;;;;;;;5051953;28;20037;-65
2021/08/06 06:53:52;;;;;;;18.58;16.58;;;;;;;;;;5033819;28;20067;-66
2021/08/06 06:56:18;;;;;;;18.15;16.25;;;;;;;;;;5050820;28;20021;-65
2021/08/06 06:58:44;;;;;;;19.00;15.90;;;;;;;;;;5034315;28;20477;-63
2021/08/06 07:01:10;;;;;;;18.40;16.40;;;;;;;;;;5051862;28;20017;-64
2021/08/06 07:03:36;;;;;;;18.35;16.45;;;;;;;;;;5033719;28;20378;-65
2021/08/06 07:06:02;;;;;;;17.90;15.93;;;;;;;;;;5051245;28;20033;-65
2021/08/06 07:08:28;;;;;;;17.40;15.50;;;;;;;;;;5034499;28;20036;-63
2021/08/06 07:10:54;;;;;;;18.23;16.00;;;;;;;;;;5056692;28;20049;-65
2021/08/06 07:13:20;;;;;;;18.38;16.48;;;;;;;;;;5038228;28;20064;-64
2021/08/06 07:15:47;;;;;;;18.73;16.25;;;;;;;;;;5037754;28;20021;-64
2021/08/06 07:18:13;;;;;;;18.63;16.55;;;;;;;;;;5056008;28;20029;-64
2021/08/06 07:20:39;;;;;;;19.08;15.60;;;;;;;;;;5037746;28;20057;-65
2021/08/06 07:23:06;;;;;;;17.90;15.95;;;;;;;;;;5037958;28;20029;-66
2021/08/06 07:25:32;;;;;;;20.02;16.05;;;;;;;;;;5037020;28;20487;-64
2021/08/06 07:27:58;;;;;;;17.63;15.73;;;;;;;;;;5038636;28;20029;-64
2021/08/06 07:30:25;;;;;;;18.58;16.52;;;;;;;;;;5037747;28;20032;-65
2021/08/06 07:32:51;;;;;;;18.20;16.13;;;;;;;;;;5037817;28;20025;-65
2021/08/06 07:35:18;;;;;;;17.45;15.55;;;;;;;;;;5054381;28;20021;-65
2021/08/06 07:37:44;;;;;;;18.13;15.75;;;;;;;;;;5037241;28;20028;-66
2021/08/06 07:40:11;;;;;;;17.75;15.52;;;;;;;;;;5037329;28;20032;-64
2021/08/06 07:42:38;;;;;;;18.67;16.00;;;;;;;;;;5037145;28;20040;-62
2021/08/06 07:45:04;;;;;;;18.70;15.95;;;;;;;;;;5036932;28;20079;-65
2021/08/06 07:47:30;;;;;;;18.42;16.30;;;;;;;;;;5054115;28;20055;-64
2021/08/06 07:49:56;;;;;;;19.52;15.82;;;;;;;;;;5054405;28;20032;-66
2021/08/06 07:52:22;;;;;;;18.20;16.17;;;;;;;;;;5054809;28;20236;-67
2021/08/06 07:54:48;;;;;;;18.15;16.23;;;;;;;;;;5054413;28;20025;-67
2021/08/06 07:57:14;;;;;;;19.13;16.95;;;;;;;;;;5035760;28;20021;-67
2021/08/06 07:59:40;;;;;;;18.15;16.15;;;;;;;;;;5054370;28;20020;-67
2021/08/06 08:02:07;;;;;;;19.25;16.27;;;;;;;;;;5054076;28;20029;-65
2021/08/06 08:04:34;;;;;;;18.15;15.80;;;;;;;;;;5036443;28;20032;-67
2021/08/06 08:07:00;;;;;;;19.88;16.00;;;;;;;;;;5035817;28;20039;-66
2021/08/06 08:09:26;;;;;;;17.33;15.25;;;;;;;;;;5054424;28;20025;-66
2021/08/06 08:11:52;;;;;;;18.80;15.13;;;;;;;;;;5054420;28;20064;-66
2021/08/06 08:14:18;;;;;;;18.63;15.50;;;;;;;;;;5036689;28;20095;-64
2021/08/06 08:16:44;;;;;;;18.55;15.98;;;;;;;;;;5036725;28;20064;-65
2021/08/06 08:19:10;;;;;;;18.88;15.93;;;;;;;;;;5037280;28;20075;-66
2021/08/06 08:21:36;;;;;;;19.20;15.52;;;;;;;;;;5036002;28;20029;-67
2021/08/06 08:24:02;;;;;;;19.42;15.88;;;;;;;;;;5054694;28;20055;-68
2021/08/06 08:26:28;;;;;;;17.88;15.00;;;;;;;;;;5053457;28;20036;-65
2021/08/06 08:28:54;;;;;;;18.48;15.88;;;;;;;;;;5035917;28;20083;-67
2021/08/06 08:31:20;;;;;;;18.38;15.90;;;;;;;;;;5054278;28;20036;-68
2021/08/06 08:33:46;;;;;;;18.05;15.68;;;;;;;;;;5036323;28;20111;-69
2021/08/06 08:36:12;;;;;;;19.35;16.05;;;;;;;;;;5053482;28;20379;-67
2021/08/06 08:38:38;;;;;;;17.95;15.20;;;;;;;;;;5036021;28;20469;-66
2021/08/06 08:41:04;;;;;;;17.27;15.38;;;;;;;;;;5054278;28;20059;-70
2021/08/06 08:43:30;;;;;;;17.55;15.60;;;;;;;;;;5036092;28;20021;-68
2021/08/06 08:45:57;;;;;;;18.23;16.33;;;;;;;;;;5035389;28;20032;-68
2021/08/06 08:48:23;;;;;;;18.40;16.13;;;;;;;;;;5035934;28;20086;-67
2021/08/06 08:50:52;;;;;;;18.33;16.15;;;;;;;;;;5053752;28;20037;-67
2021/08/06 08:53:18;;;;;;;;;;;;;;;;;;5036674;28;20051;-68
2021/08/06 08:55:44;;;;;;;18.20;16.30;;;;;;;;;;5053097;28;19909;-68
2021/08/06 08:58:11;;;;;;;17.45;15.60;;;;;;;;;;5054928;28;20031;-68
2021/08/06 09:00:37;;;;;;;18.60;15.60;;;;;;;;;;5035680;28;20426;-66
2021/08/06 09:03:03;;;;;;;18.95;15.70;;;;;;;;;;5053481;28;20161;-68
2021/08/06 09:05:29;;;;;;;18.52;16.05;;;;;;;;;;5053630;28;20075;-69
2021/08/06 09:07:57;;;;;;;17.63;15.73;;;;;;;;;;5054657;28;20035;-68
2021/08/06 09:10:27;;;;;;;22.90;16.27;;;;;;;;;;5035658;28;20025;-68
2021/08/06 09:12:55;;;;;;;17.83;15.93;;;;;;;;;;5053393;28;20079;-68
2021/08/06 09:15:21;;;;;;;;;;;;;;;;;;5035204;28;20079;-68
2021/08/06 09:17:48;;;;;;;17.92;16.02;;;;;;;;;;5052182;28;19995;-68
2021/08/06 09:20:16;;;;;;;18.77;16.08;;;;;;;;;;5053383;28;20127;-68
2021/08/06 09:22:42;;;;;;;18.48;16.15;;;;;;;;;;5053461;28;20108;-67
2021/08/06 09:25:09;;;;;;;18.13;15.77;;;;;;;;;;5052533;28;20032;-68
2021/08/06 09:27:37;;;;;;;18.90;16.90;;;;;;;;;;5053011;28;20133;-68
2021/08/06 09:30:05;;;;;;;17.70;15.80;;;;;;;;;;5053072;28;20495;-68
2021/08/06 09:32:52;;;;;;;18.02;16.13;;;;;;;;;;5053023;28;20017;-69
2021/08/06 09:35:19;;;;;;;18.77;16.38;;;;;;;;;;5033832;28;20445;-67
2021/08/06 09:37:45;;;;;;;18.52;16.45;;;;;;;;;;5034815;28;20112;-68
2021/08/06 09:40:17;;;;;;;18.92;16.90;;;;;;;;;;5034768;28;20389;-68
2021/08/06 09:42:48;;;;;;;19.13;17.13;;;;;;;;;;5035034;28;20041;-68
2021/08/06 09:45:15;;;;;;;18.80;16.80;;;;;;;;;;5034049;28;20035;-68
2021/08/06 09:47:41;;;;;;;19.23;17.30;;;;;;;;;;5052829;28;20116;-69
2021/08/06 09:50:09;;;;;;;18.70;16.80;;;;;;;;;;5052677;28;20040;-68
2021/08/06 09:52:36;;;;;;;18.35;16.45;;;;;;;;;;5052784;28;20279;-68
2021/08/06 09:55:04;;;;;;;18.38;16.48;;;;;;;;;;5034820;28;20029;-68
2021/08/06 09:57:30;;;;;;;17.73;15.82;;;;;;;;;;5033846;28;20025;-67
2021/08/06 09:59:57;;;;;;;19.17;15.93;;;;;;;;;;5052415;28;20031;-68
2021/08/06 10:02:24;;;;;;;18.42;16.50;;;;;;;;;;5034787;28;20017;-68
2021/08/06 10:05:20;;;;;;;18.38;16.48;;;;;;;;;;5034982;28;20055;-69
2021/08/06 10:07:53;;;;;;;19.38;17.38;;;;;;;;;;5022228;28;20044;-69
2021/08/06 10:10:21;;;;;;;19.08;17.08;;;;;;;;;;5034625;28;20028;-68
2021/08/06 10:12:49;;;;;;;18.80;16.73;;;;;;;;;;5034017;28;20246;-68
2021/08/06 10:15:15;;;;;;;19.20;17.30;;;;;;;;;;5051049;28;20051;-69
2021/08/06 10:17:44;;;;;;;18.52;16.63;;;;;;;;;;5052742;28;20113;-68
2021/08/06 10:20:14;;;;;;;19.83;17.73;;;;;;;;;;5034580;28;20333;-69
2021/08/06 10:22:41;;;;;;;19.55;16.98;;;;;;;;;;5033819;28;20031;-69
2021/08/06 10:25:10;;;;;;;19.05;17.05;;;;;;;;;;5051775;28;20024;-67
2021/08/06 10:27:37;;;;;;;18.42;16.42;;;;;;;;;;5033611;28;20028;-69
2021/08/06 10:30:20;;;;;;;18.77;16.45;;;;;;;;;;5051852;28;20021;-68
2021/08/06 10:33:04;;;;;;;17.85;15.95;;;;;;;;;;5051970;28;20047;-69
2021/08/06 10:35:40;;;;;;;17.85;15.95;;;;;;;;;;5033394;28;20025;-69
2021/08/06 10:38:09;;;;;;;17.40;15.60;;;;;;;;;;5047220;28;20033;-66
2021/08/06 10:40:38;;;;;;;18.67;16.65;;;21.70;99.90;;;;;;5031487;28;20021;-69
2021/08/06 10:43:10;;;;;;;17.75;15.95;;;21.60;99.90;;;;;;5029677;28;20033;-65
2021/08/06 10:45:45;;;;;;;18.65;15.80;;;21.60;99.90;;;;;;5029689;28;20060;-68
2021/08/06 10:48:29;;;;;;;20.15;15.82;;;21.80;99.90;;;;;;5030466;28;20072;-68
2021/08/06 10:51:17;;;;;;;20.33;16.60;;;21.70;99.90;;;;;;5030806;28;20114;-68
2021/08/06 10:53:43;;;;;;;18.05;16.15;;;21.70;99.90;;;;;;5030491;28;20025;-68
2021/08/06 10:56:18;;;;;;;17.83;15.93;;;21.70;99.90;;;;;;5030839;28;20029;-68
2021/08/06 10:58:52;;;;;;;17.55;15.65;;;22.00;99.90;;;;;;5031317;28;20390;-68
2021/08/06 11:01:27;;;;;;;17.60;15.80;;;22.40;99.90;;;;;;5031535;28;20093;-70
2021/08/06 11:03:54;;;;;;;18.95;16.42;;;;;;;;;;5030247;28;20477;-67
2021/08/06 11:06:45;;;;;;;18.17;15.73;;;22.60;99.90;;;;;;5029678;28;20054;-69
2021/08/06 11:09:31;;;;;;;17.70;15.90;;;;;;;;;;5029003;28;20029;-66
2021/08/06 11:11:57;;;;;;;18.27;16.25;;;21.80;99.90;;;;;;5029987;28;20120;-69
2021/08/06 11:14:29;;;;;;;18.27;16.10;;;;;;;;;;5030394;28;20056;-68
2021/08/06 11:17:05;;;;;;;18.33;15.93;;;;;;;;;;5030810;28;20034;-68
2021/08/06 11:19:34;;;;;;;17.60;15.70;;;;;;;;;;5031385;28;20036;-68
2021/08/06 11:22:01;;;;;;;17.15;15.35;;;;;;;;;;5031241;28;20018;-68
2021/08/06 11:24:27;;;;;;;18.05;16.15;;;;;;;;;;5029828;28;20049;-67
2021/08/06 11:26:53;;;;;;;17.60;15.70;;;;;;;;;;5029394;28;20055;-69
2021/08/06 11:29:20;;;;;;;17.52;15.70;;;;;;;;;;5031375;28;20030;-68
2021/08/06 11:31:58;;;;;;;17.83;15.93;;;;;;;;;;5031016;28;20076;-68
2021/08/06 11:34:24;;;;;;;18.02;16.13;;;;;;;;;;5029754;28;20025;-66
2021/08/06 11:36:58;;;;;;;17.75;15.95;;;;;;;;;;5029839;28;20098;-66
2021/08/06 11:39:24;;;;;;;18.38;16.45;;;;;;;;;;5030725;28;20018;-67
2021/08/06 11:41:51;;;;;;;18.33;16.30;;;;;;;;;;5030993;28;20568;-68
2021/08/06 11:44:17;;;;;;;18.33;16.42;;;;;;;;;;5030742;28;20017;-68
2021/08/06 11:46:50;;;;;;;18.30;16.38;;;;;;;;;;5030337;28;20032;-66
2021/08/06 11:49:17;;;;;;;17.35;15.45;;;;;;;;;;5048711;23;20119;-68
2021/08/06 11:51:47;;;;;;;18.33;16.40;;;;;;;;;;5070306;28;20138;-69
2021/08/06 11:54:13;;;;;;;18.48;16.42;;;;;;;;;;5052689;28;20388;-68
2021/08/06 11:56:39;;;;;;;18.48;16.58;;;;;;;;;;5073459;28;20021;-69
2021/08/06 11:59:08;;;;;;;19.33;17.30;;;;;;;;;;5074499;28;20030;-69
2021/08/06 12:01:35;;;;;;;19.10;17.10;;;;;;;;;;5074445;28;20170;-69
2021/08/06 12:04:01;;;;;;;19.52;17.27;;;;;;;;;;5056239;28;20028;-69
2021/08/06 12:06:27;;;;;;;19.27;16.83;;;;;;;;;;5055170;28;20029;-68
2021/08/06 12:08:54;;;;;;;18.95;16.95;;;;;;;;;;5072957;28;20480;-68
2021/08/06 12:11:21;;;;;;;18.65;16.65;;;;;;;;;;5055961;28;20418;-70
2021/08/06 12:13:49;;;;;;;19.77;16.58;;;;;;;;;;5056574;28;20484;-68
2021/08/06 12:16:21;;;;;;;18.77;16.77;;;;;;;;;;5054953;28;20109;-68
2021/08/06 12:18:48;;;;;;;19.00;16.92;;;;;;;;;;5056060;28;20077;-67
2021/08/06 12:21:15;;;;;;;18.67;16.47;;;;;;;;;;5055828;28;20029;-68
2021/08/06 12:23:51;;;;;;;19.00;16.88;;;;;;;;;;5053006;28;20055;-69
2021/08/06 12:26:35;;;;;;;18.90;16.80;;;;;;;;;;5055708;28;20554;-68
2021/08/06 12:29:09;;;;;;;18.23;16.30;;;;;;;;;;5053273;28;20482;-69
2021/08/06 12:31:52;;;;;;;19.45;16.90;;;22.10;99.90;;;;;;5060964;28;20689;-68
2021/08/06 12:34:24;;;;;;;18.20;16.30;;;;;;;;;;5073525;28;20028;-69
2021/08/06 12:36:55;;;;;;;18.55;16.17;;;;;;;;;;5055371;28;20481;-68
2021/08/06 12:39:21;;;;;;;18.60;16.70;;;;;;;;;;5055491;28;20063;-68
2021/08/06 12:41:48;;;;;;;19.20;17.20;;;;;;;;;;5055576;28;20029;-69
2021/08/06 12:44:23;;;;;;;18.40;16.40;;;;;;;;;;5073630;28;20193;-66
2021/08/06 12:47:00;;;;;;;20.05;16.67;;;;;;;;;;5072690;28;20365;-68
2021/08/06 12:49:27;;;;;;;18.35;16.45;;;;;;;;;;5072902;28;20487;-67
2021/08/06 12:51:58;;;;;;;18.30;15.57;;;;;;;;;;5073190;28;20533;-69
2021/08/06 12:54:53;;;;;;;19.38;15.90;;;;;;;;;;5073054;28;20062;-71
2021/08/06 12:57:35;;;;;;;17.73;15.82;;;;;;;;;;5055120;28;20123;-67
2021/08/06 13:00:12;;;;;;;17.58;15.68;;;;;;;;;;5072754;28;20025;-69
2021/08/06 13:02:38;;;;;;;17.58;15.68;;;;;;;;;;5055455;28;20395;-68
2021/08/06 13:05:07;;;;;;;17.90;16.00;;;;;;;;;;5072914;28;20469;-67
2021/08/06 13:07:33;;;;;;;18.45;15.70;;;;;;;;;;5071639;28;20085;-68
2021/08/06 13:10:00;;;;;;;17.40;15.57;;;;;;;;;;5072097;28;20120;-69
2021/08/06 13:12:27;;;;;;;17.73;15.70;;;;;;;;;;5072245;28;20078;-69
2021/08/06 13:14:53;;;;;;;17.45;15.55;;;;;;;;;;5072764;28;20317;-70
2021/08/06 13:17:20;;;;;;;16.98;15.18;;;;;;;;;;5072327;28;20474;-69
2021/08/06 13:19:46;;;;;;;17.30;15.45;;;;;;;;;;5054409;28;20027;-68
2021/08/06 13:22:13;;;;;;;18.90;16.13;;;;;;;;;;5054099;28;20020;-69
2021/08/06 13:24:40;;;;;;;18.08;16.17;;;;;;;;;;5054119;28;20107;-70
2021/08/06 13:27:06;;;;;;;18.02;16.13;;;;;;;;;;5052732;28;20031;-70
2021/08/06 13:29:32;;;;;;;18.80;15.57;;;;;;;;;;5068150;28;20479;-68
2021/08/06 13:31:59;;;;;;;17.98;15.93;;;;;;;;;;5070647;28;20024;-69
2021/08/06 13:34:25;;;;;;;18.05;16.05;;;;;;;;;;5053306;28;20032;-69
2021/08/06 13:36:51;;;;;;;17.83;15.93;;;;;;;;;;5071562;28;20033;-70
2021/08/06 13:39:17;;;;;;;18.17;16.35;;;;;;;;;;5071993;28;20086;-67
2021/08/06 13:41:43;;;;;;;18.35;16.35;;;;;;;;;;5054207;28;20029;-69
2021/08/06 13:44:09;;;;;;;18.50;16.50;;;;;;;;;;5072325;28;20372;-69
2021/08/06 13:46:35;;;;;;;18.42;16.42;;;;;;;;;;5071917;28;20121;-69
2021/08/06 13:49:03;;;;;;;20.20;16.73;;;;;;;;;;5054087;28;20119;-70
2021/08/06 13:51:29;;;;;;;18.60;16.42;;;;;;;;;;5054106;28;20036;-69
2021/08/06 13:53:56;;;;;;;19.33;17.25;;;;;;;;;;5071826;28;20067;-71
2021/08/06 13:56:22;;;;;;;18.58;16.67;;;;;;;;;;5053299;28;20036;-69
2021/08/06 13:58:48;;;;;;;19.10;16.63;;;;;;;;;;5054352;28;20029;-67
2021/08/06 14:01:14;;;;;;;18.80;16.80;;;;;;;;;;5054597;28;20447;-68
2021/08/06 14:03:40;;;;;;;18.80;16.63;;;;;;;;;;5071972;28;20028;-69
2021/08/06 14:06:09;;;;;;;18.73;16.73;;;;;;;;;;5071458;28;20419;-70
2021/08/06 14:08:36;;;;;;;19.10;16.75;;;;;;;;;;5072177;28;20482;-70
2021/08/06 14:11:02;;;;;;;18.33;16.42;;;;;;;;;;5072506;28;20021;-69
2021/08/06 14:13:28;;;;;;;18.92;16.88;;;;;;;;;;5055106;28;20473;-70
2021/08/06 14:15:53;;;;;;;18.58;16.25;;;;;;;;;;5071696;28;20055;-69